createdAt,value
2017-10-19T00:00:58.494Z,61.53
2017-10-19T00:03:27.498Z,57.80
2017-10-19T00:05:56.601Z,57.17
2017-10-19T00:08:24.846Z,53.87
2017-10-19T00:10:53.097Z,48.10
2017-10-19T00:13:21.341Z,52.00
2017-10-19T00:15:49.590Z,54.63
2017-10-19T00:18:18.706Z,50.67
2017-10-19T00:20:46.954Z,49.30
2017-10-19T00:23:15.962Z,60.53
2017-10-19T00:25:44.973Z,42.40
2017-10-19T00:28:13.210Z,57.13
2017-10-19T00:30:41.457Z,44.20
2017-10-19T00:33:09.706Z,45.00
2017-10-19T00:35:37.957Z,39.30
2017-10-19T00:38:06.957Z,48.97
2017-10-19T00:40:35.209Z,50.77
2017-10-19T00:43:04.220Z,56.17
2017-10-19T00:45:32.470Z,55.17
2017-10-19T00:48:00.709Z,49.90
2017-10-19T00:50:28.958Z,48.67
2017-10-19T00:52:57.201Z,63.50
2017-10-19T00:55:26.223Z,103.00
2017-10-19T00:57:54.495Z,253.13
2017-10-19T01:00:22.748Z,341.67
2017-10-19T01:02:50.997Z,386.97
2017-10-19T02:19:57.954Z,80.87
2017-10-19T02:22:26.209Z,59.93
2017-10-19T02:24:54.448Z,76.03
2017-10-19T02:27:23.471Z,180.43
2017-10-19T02:29:51.725Z,145.83
2017-10-19T02:32:20.006Z,92.30
2017-10-19T02:34:48.262Z,102.70
2017-10-19T02:37:17.374Z,76.00
2017-10-19T02:39:45.618Z,80.17
2017-10-19T02:42:13.870Z,84.23
2017-10-19T02:44:42.109Z,71.87
2017-10-19T02:47:10.363Z,80.97
2017-10-19T02:49:39.373Z,172.20
2017-10-19T02:52:07.646Z,77.80
2017-10-19T02:54:35.892Z,199.70
2017-10-19T02:57:04.137Z,131.20
2017-10-19T02:59:32.382Z,444.57
2017-10-19T03:02:00.637Z,499.73
2017-10-19T03:04:28.882Z,499.33
2017-10-19T03:06:57.198Z,499.00
2017-10-19T03:09:25.442Z,382.30
2017-10-19T03:11:53.705Z,277.33
2017-10-19T03:14:21.952Z,291.73
2017-10-19T03:16:50.203Z,337.67
2017-10-19T03:19:18.446Z,188.80
2017-10-19T03:21:47.462Z,512.87
2017-10-19T03:24:15.709Z,253.63
2017-10-19T03:26:44.014Z,433.13
2017-10-19T03:29:12.261Z,161.77
2017-10-19T03:31:40.566Z,160.90
2017-10-19T03:34:08.811Z,326.40
2017-10-19T03:36:37.838Z,761.20
2017-10-19T03:39:06.088Z,530.80
2017-10-19T03:41:34.394Z,755.87
2017-10-19T03:44:02.633Z,504.77
2017-10-19T03:46:30.937Z,507.20
2017-10-19T03:48:59.185Z,517.30
2017-10-19T03:51:27.494Z,964.47
2017-10-19T03:53:55.738Z,903.73
2017-10-19T03:56:23.989Z,814.93
2017-10-19T03:58:52.237Z,745.77
2017-10-19T04:01:20.600Z,765.07
2017-10-19T04:03:48.844Z,643.70
2017-10-19T04:06:17.091Z,536.80
2017-10-19T04:08:45.332Z,666.07
2017-10-19T04:11:13.585Z,598.80
2017-10-19T04:13:42.607Z,678.90
2017-10-19T04:16:10.866Z,475.10
2017-10-19T04:18:39.116Z,403.80
2017-10-19T04:21:07.358Z,446.97
2017-10-19T04:23:35.606Z,291.40
2017-10-19T04:26:03.842Z,439.80
2017-10-19T04:28:32.863Z,191.43
2017-10-19T04:31:01.111Z,74.40
2017-10-19T04:33:30.122Z,80.63
2017-10-19T04:35:59.120Z,51.33
2017-10-19T04:38:27.378Z,85.03
2017-10-19T04:40:56.409Z,76.83
2017-10-19T04:43:24.628Z,68.77
2017-10-19T04:45:54.377Z,74.20
2017-10-19T04:48:22.625Z,84.90
2017-10-19T04:50:51.628Z,69.03
2017-10-19T04:53:20.650Z,96.47
2017-10-19T04:55:48.907Z,106.77
2017-10-19T04:58:17.153Z,85.27
2017-10-19T05:00:45.399Z,68.00
2017-10-19T05:03:13.651Z,68.73
2017-10-19T05:05:41.907Z,116.90
2017-10-19T05:08:10.155Z,299.70
2017-10-19T05:10:38.405Z,373.67
2017-10-19T05:13:06.655Z,447.70
2017-10-19T05:15:34.894Z,366.73
2017-10-19T05:18:04.004Z,366.27
2017-10-19T05:20:32.284Z,730.60
2017-10-19T05:23:00.531Z,342.50
2017-10-19T05:25:28.774Z,501.33
2017-10-19T05:27:57.122Z,346.23
2017-10-19T05:30:25.365Z,414.37
2017-10-19T05:32:54.385Z,396.63
2017-10-19T05:35:22.627Z,732.90
2017-10-19T05:37:50.881Z,284.37
2017-10-19T05:40:19.116Z,505.20
2017-10-19T05:42:47.374Z,469.03
2017-10-19T05:45:16.380Z,518.57
2017-10-19T05:47:44.650Z,494.30
2017-10-19T05:50:12.929Z,453.97
2017-10-19T05:52:41.189Z,507.83
2017-10-19T05:55:10.199Z,393.77
2017-10-19T05:57:38.455Z,482.27
2017-10-19T06:00:07.462Z,484.87
2017-10-19T06:02:35.734Z,403.50
2017-10-19T06:05:03.981Z,581.17
2017-10-19T06:07:32.239Z,669.60
2017-10-19T06:10:00.486Z,693.53
2017-10-19T06:12:28.738Z,621.90
2017-10-19T06:14:56.989Z,754.20
2017-10-19T06:17:34.015Z,620.63
2017-10-19T06:20:02.269Z,1022.97
2017-10-19T06:22:30.528Z,1007.03
2017-10-19T06:24:59.537Z,821.37
2017-10-19T06:27:27.794Z,720.07
2017-10-19T06:29:56.090Z,629.10
2017-10-19T06:32:24.363Z,1064.17
2017-10-19T06:34:52.611Z,811.50
2017-10-19T06:37:20.860Z,832.97
2017-10-19T06:39:49.106Z,891.20
2017-10-19T06:42:17.369Z,894.10
2017-10-19T06:44:45.618Z,578.50
2017-10-19T06:47:13.866Z,1032.93
2017-10-19T06:49:42.116Z,961.80
2017-10-19T06:52:10.368Z,785.13
2017-10-19T06:54:38.641Z,710.00
2017-10-19T06:57:06.918Z,1030.90
2017-10-19T06:59:35.169Z,796.27
2017-10-19T07:02:04.194Z,808.27
2017-10-19T07:04:32.438Z,573.70
2017-10-19T07:07:01.468Z,423.90
2017-10-19T07:09:29.706Z,334.40
2017-10-19T07:11:57.961Z,292.87
2017-10-19T07:14:26.209Z,135.70
2017-10-19T07:16:54.480Z,376.17
2017-10-19T07:19:22.737Z,289.27
2017-10-19T07:21:50.982Z,94.13
2017-10-19T07:24:20.008Z,53.87
2017-10-19T07:26:48.242Z,52.07
2017-10-19T07:29:16.559Z,45.30
2017-10-19T07:31:44.806Z,39.03
2017-10-19T07:34:13.813Z,28.90
2017-10-19T07:36:42.061Z,30.73
2017-10-19T07:39:10.311Z,27.60
2017-10-19T07:41:38.550Z,24.20
2017-10-19T07:44:06.804Z,22.70
2017-10-19T07:46:35.806Z,19.67
2017-10-19T07:49:04.824Z,22.60
2017-10-19T07:51:33.080Z,19.57
2017-10-19T07:54:01.335Z,24.83
2017-10-19T07:56:30.337Z,22.60
2017-10-19T07:58:59.451Z,21.77
2017-10-19T08:01:27.719Z,21.93
2017-10-19T08:03:56.003Z,22.53
2017-10-19T08:06:24.250Z,20.87
2017-10-19T08:08:53.376Z,20.53
2017-10-19T08:11:21.626Z,19.03
2017-10-19T08:13:50.631Z,19.50
2017-10-19T08:16:18.877Z,20.10
2017-10-19T08:18:47.128Z,19.33
2017-10-19T08:21:15.365Z,20.40
2017-10-19T08:23:43.609Z,19.67
2017-10-19T08:26:12.621Z,25.80
2017-10-19T08:28:41.643Z,23.50
2017-10-19T08:31:09.881Z,25.57
2017-10-19T08:33:38.898Z,32.27
2017-10-19T08:36:07.138Z,27.80
2017-10-19T08:38:35.388Z,32.20
2017-10-19T08:41:03.631Z,31.80
2017-10-19T08:43:31.878Z,29.37
2017-10-19T08:46:00.120Z,28.13
2017-10-19T08:48:28.370Z,26.93
2017-10-19T08:50:56.613Z,28.90
2017-10-19T08:53:25.640Z,28.50
2017-10-19T08:55:53.887Z,27.53
2017-10-19T08:58:22.132Z,25.47
2017-10-19T09:00:51.148Z,24.60
2017-10-19T09:03:19.399Z,24.13
2017-10-19T09:05:48.413Z,22.40
2017-10-19T09:08:16.673Z,22.67
2017-10-19T09:10:45.687Z,24.80
2017-10-19T09:13:13.953Z,23.93
2017-10-19T09:15:42.968Z,23.70
2017-10-19T09:18:11.331Z,23.30
2017-10-19T09:20:39.581Z,25.27
2017-10-19T09:23:08.612Z,24.03
2017-10-19T09:25:36.862Z,20.23
2017-10-19T09:28:05.975Z,21.03
2017-10-19T09:30:34.222Z,21.03
2017-10-19T09:33:03.252Z,26.37
2017-10-19T09:35:31.513Z,23.33
2017-10-19T09:37:59.771Z,24.43
2017-10-19T09:40:28.890Z,21.50
2017-10-19T09:42:57.146Z,21.40
2017-10-19T09:45:26.168Z,23.33
2017-10-19T09:47:54.418Z,21.80
2017-10-19T09:50:23.437Z,20.57
2017-10-19T09:52:51.693Z,23.20
2017-10-19T09:55:19.946Z,20.00
2017-10-19T09:57:48.970Z,20.10
2017-10-19T10:00:17.222Z,20.53
2017-10-19T10:02:46.228Z,25.20
2017-10-19T10:05:14.483Z,22.60
2017-10-19T10:07:42.737Z,20.77
2017-10-19T10:10:10.989Z,20.70
2017-10-19T10:12:39.233Z,20.70
2017-10-19T10:15:07.486Z,22.57
2017-10-19T10:17:36.505Z,22.03
2017-10-19T10:20:04.765Z,22.73
2017-10-19T10:22:33.782Z,23.00
2017-10-19T10:25:02.047Z,22.70
2017-10-19T10:27:30.289Z,24.33
2017-10-19T10:29:59.310Z,26.17
2017-10-19T10:32:28.317Z,23.03
2017-10-19T10:34:56.579Z,21.83
2017-10-19T10:37:25.595Z,22.77
2017-10-19T10:39:53.854Z,21.83
2017-10-19T10:42:22.102Z,24.87
2017-10-19T10:44:50.358Z,20.87
2017-10-19T10:47:18.607Z,22.57
2017-10-19T10:49:46.859Z,21.70
2017-10-19T10:52:15.102Z,25.07
2017-10-19T10:54:43.356Z,26.10
2017-10-19T10:57:11.599Z,22.10
2017-10-19T10:59:39.852Z,23.80
2017-10-19T11:02:08.857Z,21.30
2017-10-19T11:04:37.125Z,24.60
2017-10-19T11:07:05.372Z,24.00
2017-10-19T11:09:33.630Z,22.00
2017-10-19T11:12:01.887Z,24.10
2017-10-19T11:14:30.230Z,27.17
2017-10-19T11:16:58.475Z,21.33
2017-10-19T11:19:26.721Z,21.53
2017-10-19T11:21:54.972Z,24.37
2017-10-19T11:24:23.218Z,22.47
2017-10-19T11:26:52.237Z,27.10
2017-10-19T11:29:20.477Z,23.03
2017-10-19T11:31:49.486Z,25.03
2017-10-19T11:34:17.753Z,27.70
2017-10-19T11:36:46.859Z,30.17
2017-10-19T11:39:15.110Z,25.73
2017-10-19T11:41:44.126Z,25.30
2017-10-19T11:44:12.415Z,26.10
2017-10-19T11:46:40.662Z,27.37
2017-10-19T11:49:09.689Z,25.27
2017-10-19T11:51:37.932Z,23.97
2017-10-19T11:54:06.942Z,24.90
2017-10-19T11:56:35.190Z,24.23
2017-10-19T11:59:03.444Z,30.13
2017-10-19T12:01:32.454Z,23.13
2017-10-19T12:04:00.707Z,23.93
2017-10-19T12:06:28.954Z,26.97
2017-10-19T12:08:57.213Z,24.37
2017-10-19T12:11:25.454Z,25.30
2017-10-19T12:13:54.278Z,23.77
2017-10-19T12:16:22.531Z,32.53
2017-10-19T12:18:51.546Z,26.00
2017-10-19T12:21:19.792Z,26.27
2017-10-19T12:23:48.813Z,24.83
2017-10-19T12:26:17.054Z,29.60
2017-10-19T12:28:45.302Z,22.50
2017-10-19T12:31:13.550Z,23.27
2017-10-19T12:33:41.802Z,24.83
2017-10-19T12:36:10.826Z,25.43
2017-10-19T12:38:39.078Z,27.37
2017-10-19T12:41:07.321Z,29.83
2017-10-19T12:43:35.578Z,30.10
2017-10-19T12:46:03.819Z,35.93
2017-10-19T12:48:32.074Z,26.73
2017-10-19T12:51:01.082Z,31.50
2017-10-19T12:53:29.355Z,27.40
2017-10-19T12:55:57.609Z,28.70
2017-10-19T12:58:26.618Z,25.00
2017-10-19T13:00:54.873Z,25.07
2017-10-19T13:03:23.887Z,24.93
2017-10-19T13:05:52.140Z,25.93
2017-10-19T13:08:21.157Z,23.43
2017-10-19T13:10:49.409Z,25.30
2017-10-19T13:13:18.426Z,24.90
2017-10-19T13:15:46.674Z,23.73
2017-10-19T13:18:15.686Z,29.07
2017-10-19T13:20:44.706Z,25.37
2017-10-19T13:23:12.953Z,23.57
2017-10-19T13:25:41.974Z,25.27
2017-10-19T13:28:10.221Z,25.00
2017-10-19T13:30:39.237Z,24.60
2017-10-19T13:33:07.483Z,30.60
2017-10-19T13:35:36.503Z,24.47
2017-10-19T13:38:04.754Z,25.37
2017-10-19T13:40:33.765Z,23.67
2017-10-19T13:43:02.019Z,24.90
2017-10-19T13:45:31.043Z,26.80
2017-10-19T13:47:59.286Z,24.40
2017-10-19T13:50:28.305Z,24.33
2017-10-19T13:52:56.550Z,23.27
2017-10-19T13:55:25.710Z,23.80
2017-10-19T13:57:53.963Z,24.90
2017-10-19T14:00:22.236Z,26.57
2017-10-19T14:02:50.482Z,24.07
2017-10-19T14:05:19.500Z,25.77
2017-10-19T14:07:47.749Z,29.73
2017-10-19T14:10:16.771Z,21.90
2017-10-19T14:12:45.014Z,28.30
2017-10-19T14:15:14.030Z,24.30
2017-10-19T14:17:42.273Z,24.80
2017-10-19T14:20:11.313Z,25.77
2017-10-19T14:22:39.554Z,27.67
2017-10-19T14:25:08.567Z,24.80
2017-10-19T14:27:36.826Z,26.73
2017-10-19T14:30:05.849Z,24.60
2017-10-19T14:32:34.097Z,27.83
2017-10-19T14:35:02.355Z,23.77
2017-10-19T14:37:30.602Z,24.43
2017-10-19T14:39:58.846Z,26.67
2017-10-19T14:42:27.111Z,22.97
2017-10-19T14:44:55.349Z,22.33
2017-10-19T14:47:23.609Z,28.57
2017-10-19T14:49:51.857Z,25.27
2017-10-19T14:52:20.315Z,22.00
2017-10-19T14:54:48.558Z,28.40
2017-10-19T14:57:16.800Z,28.80
2017-10-19T14:59:45.054Z,24.77
2017-10-19T15:02:13.302Z,23.90
2017-10-19T15:04:42.332Z,24.77
2017-10-19T15:07:10.575Z,20.67
2017-10-19T15:09:39.597Z,21.90
2017-10-19T15:12:07.846Z,19.63
2017-10-19T15:14:36.231Z,26.40
2017-10-19T15:17:04.483Z,22.93
2017-10-19T15:19:33.503Z,22.67
2017-10-19T15:22:01.757Z,23.53
2017-10-19T15:24:30.781Z,23.87
2017-10-19T15:26:59.027Z,23.37
2017-10-19T15:29:28.061Z,26.80
2017-10-19T15:31:56.315Z,25.53
2017-10-19T15:34:24.573Z,21.93
2017-10-19T15:36:53.582Z,21.60
2017-10-19T15:39:22.061Z,25.43
2017-10-19T15:41:50.311Z,20.50
2017-10-19T15:44:19.320Z,23.90
2017-10-19T15:46:47.579Z,22.73
2017-10-19T15:49:16.590Z,25.00
2017-10-19T15:51:44.845Z,22.10
2017-10-19T15:54:13.094Z,20.90
2017-10-19T15:56:41.357Z,22.20
2017-10-19T15:59:09.606Z,22.57
2017-10-19T16:01:37.859Z,24.23
2017-10-19T16:04:06.879Z,36.83
2017-10-19T16:06:35.128Z,25.90
2017-10-19T16:09:04.142Z,27.50
2017-10-19T16:11:32.401Z,20.40
2017-10-19T16:14:00.645Z,19.87
2017-10-19T16:16:29.669Z,22.20
2017-10-19T16:18:58.682Z,20.80
2017-10-19T16:21:26.928Z,32.53
2017-10-19T16:23:55.951Z,22.93
2017-10-19T16:26:24.203Z,28.10
2017-10-19T16:28:53.224Z,22.67
2017-10-19T16:31:21.474Z,27.97
2017-10-19T16:33:50.588Z,34.63
2017-10-19T16:36:18.826Z,27.87
2017-10-19T16:38:47.853Z,24.90
2017-10-19T16:41:16.092Z,30.60
2017-10-19T16:43:44.350Z,29.67
2017-10-19T16:46:12.597Z,38.77
2017-10-19T16:48:40.863Z,30.97
2017-10-19T16:51:09.118Z,31.60
2017-10-19T16:53:37.372Z,30.13
2017-10-19T16:56:06.394Z,31.63
2017-10-19T16:58:34.645Z,30.63
2017-10-19T17:01:03.667Z,35.10
2017-10-19T17:03:31.914Z,36.50
2017-10-19T17:06:00.939Z,29.80
2017-10-19T17:08:29.182Z,26.93
2017-10-19T17:10:58.210Z,27.93
2017-10-19T17:13:26.462Z,32.97
2017-10-19T17:15:54.765Z,33.00
2017-10-19T17:18:23.002Z,35.93
2017-10-19T17:20:52.025Z,36.60
2017-10-19T17:23:20.274Z,36.53
2017-10-19T17:25:49.299Z,37.60
2017-10-19T17:28:17.547Z,34.67
2017-10-19T17:30:46.567Z,38.90
2017-10-19T17:33:14.822Z,37.03
2017-10-19T17:35:43.086Z,36.70
2017-10-19T17:38:12.114Z,40.30
2017-10-19T17:40:40.579Z,37.43
2017-10-19T17:43:08.829Z,39.97
2017-10-19T17:45:37.848Z,47.43
2017-10-19T17:48:06.093Z,37.07
2017-10-19T17:50:34.354Z,40.43
2017-10-19T17:53:02.619Z,49.83
2017-10-19T17:55:30.868Z,40.80
2017-10-19T17:57:59.890Z,56.60
2017-10-19T18:00:28.134Z,57.03
2017-10-19T18:02:57.246Z,51.00
2017-10-19T18:05:25.494Z,45.73
2017-10-19T18:07:54.518Z,45.37
2017-10-19T18:10:22.767Z,54.47
2017-10-19T18:12:51.789Z,49.70
2017-10-19T18:15:20.047Z,48.10
2017-10-19T18:17:49.072Z,47.63
2017-10-19T18:20:17.318Z,46.60
2017-10-19T18:22:45.809Z,45.80
2017-10-19T18:25:14.057Z,44.97
2017-10-19T18:27:43.079Z,47.40
2017-10-19T18:30:11.337Z,49.50
2017-10-19T18:32:40.347Z,49.87
2017-10-19T18:35:08.605Z,46.80
2017-10-19T18:37:37.628Z,51.60
2017-10-19T18:40:05.883Z,61.13
2017-10-19T18:42:34.901Z,54.07
2017-10-19T18:45:03.163Z,52.43
2017-10-19T18:47:31.407Z,53.50
2017-10-19T18:49:59.663Z,59.40
2017-10-19T18:52:27.911Z,47.00
2017-10-19T18:54:56.166Z,43.00
2017-10-19T18:57:24.425Z,56.23
2017-10-19T18:59:53.433Z,45.13
2017-10-19T19:02:21.704Z,45.17
2017-10-19T19:04:49.957Z,39.40
2017-10-19T19:07:18.970Z,37.23
2017-10-19T19:09:47.235Z,50.63
2017-10-19T19:12:16.255Z,43.80
2017-10-19T19:14:44.515Z,37.43
2017-10-19T19:17:12.769Z,40.70
2017-10-19T19:19:41.785Z,35.67
2017-10-19T19:22:10.041Z,36.60
2017-10-19T19:24:39.257Z,39.60
2017-10-19T19:27:07.519Z,37.33
2017-10-19T19:29:36.530Z,41.47
2017-10-19T19:32:04.796Z,42.53
2017-10-19T19:34:33.802Z,40.20
2017-10-19T19:37:02.059Z,34.10
2017-10-19T19:39:31.084Z,32.80
2017-10-19T19:41:59.339Z,35.40
2017-10-19T19:44:27.589Z,33.53
2017-10-19T19:46:56.617Z,32.47
2017-10-19T19:49:24.871Z,32.80
2017-10-19T19:51:53.897Z,35.63
2017-10-19T19:54:22.146Z,44.23
2017-10-19T19:56:50.410Z,36.30
2017-10-19T19:59:19.423Z,39.03
2017-10-19T20:01:47.678Z,46.87
2017-10-19T20:04:16.701Z,39.80
2017-10-19T20:06:44.966Z,46.13
2017-10-19T20:09:13.218Z,47.90
2017-10-19T20:11:42.243Z,43.73
2017-10-19T20:14:10.495Z,39.80
2017-10-19T20:16:39.518Z,39.40
2017-10-19T20:19:07.770Z,41.33
2017-10-19T20:21:36.031Z,36.93
2017-10-19T20:24:05.043Z,40.10
2017-10-19T20:26:33.533Z,45.50
2017-10-19T20:29:01.777Z,47.13
2017-10-19T20:31:30.790Z,38.67
2017-10-19T20:33:59.047Z,53.77
2017-10-19T20:36:28.068Z,46.47
2017-10-19T20:38:56.343Z,50.73
2017-10-19T20:41:24.616Z,49.07
2017-10-19T20:43:53.244Z,51.93
2017-10-19T20:46:21.495Z,50.23
2017-10-19T20:48:50.075Z,52.33
2017-10-19T20:51:19.033Z,52.47
2017-10-19T20:53:47.528Z,48.60
2017-10-19T20:58:50.457Z,52.93
2017-10-19T21:01:18.756Z,48.57
2017-10-19T21:03:47.006Z,53.77
2017-10-19T21:06:15.258Z,49.03
2017-10-19T21:08:43.506Z,49.73
2017-10-19T21:11:12.629Z,45.37
2017-10-19T21:13:40.914Z,46.80
2017-10-19T21:16:09.158Z,39.40
2017-10-19T21:18:38.174Z,39.73
2017-10-19T21:21:06.434Z,43.17
2017-10-19T21:23:35.541Z,42.70
2017-10-19T21:26:03.802Z,46.77
2017-10-19T21:28:32.827Z,45.50
2017-10-19T21:31:01.085Z,46.40
2017-10-19T21:33:29.341Z,37.50
2017-10-19T21:35:58.356Z,45.27
2017-10-19T21:38:26.610Z,45.90
2017-10-19T21:40:55.635Z,45.57
2017-10-19T21:43:23.882Z,50.43
2017-10-19T21:45:52.902Z,49.00
2017-10-19T21:48:21.207Z,52.97
2017-10-19T21:50:49.461Z,59.53
2017-10-19T21:53:17.771Z,60.23
2017-10-19T21:55:46.790Z,57.53
2017-10-19T21:58:15.814Z,64.93
2017-10-19T22:00:44.071Z,59.10
2017-10-19T22:03:13.090Z,61.30
2017-10-19T22:05:41.357Z,62.67
2017-10-19T22:08:09.608Z,68.90
2017-10-19T22:10:38.621Z,66.77
2017-10-19T22:13:06.886Z,74.43
2017-10-19T22:15:35.897Z,85.43
2017-10-19T22:18:04.153Z,63.57
2017-10-19T22:20:33.289Z,66.03
2017-10-19T22:29:02.597Z,62.73
2017-10-19T22:31:30.859Z,55.33
2017-10-19T22:33:59.883Z,52.00
2017-10-19T22:36:28.143Z,52.47
2017-10-19T22:38:56.402Z,56.70
2017-10-19T22:41:25.514Z,62.27
2017-10-19T22:43:54.388Z,63.43
2017-10-19T22:46:23.403Z,63.13
2017-10-19T22:48:51.662Z,49.00
2017-10-19T22:51:20.678Z,50.93
2017-10-19T22:53:48.936Z,52.90
2017-10-19T22:56:17.188Z,45.83
2017-10-19T22:58:46.210Z,44.10
2017-10-19T23:01:14.462Z,47.70
2017-10-19T23:03:43.482Z,47.00
2017-10-19T23:06:11.732Z,39.90
2017-10-19T23:08:40.773Z,40.73
2017-10-19T23:11:09.029Z,43.77
2017-10-19T23:13:37.286Z,41.63
2017-10-19T23:16:06.307Z,35.20
2017-10-19T23:18:34.560Z,44.57
2017-10-19T23:21:03.582Z,39.43
2017-10-19T23:23:31.837Z,40.07
2017-10-19T23:26:00.089Z,42.43
2017-10-19T23:28:29.106Z,42.60
2017-10-19T23:30:57.365Z,39.20
2017-10-19T23:33:26.386Z,37.27
2017-10-19T23:35:54.646Z,44.60
2017-10-19T23:38:22.903Z,43.23
2017-10-19T23:40:51.921Z,41.17
2017-10-19T23:43:20.171Z,40.17
2017-10-19T23:45:49.193Z,39.70
2017-10-19T23:48:17.445Z,39.63
2017-10-19T23:50:46.474Z,38.27
2017-10-19T23:53:14.722Z,40.50
2017-10-19T23:55:43.106Z,43.10
2017-10-19T23:58:11.354Z,42.30
